sensor_id;sensor_type;location;lat;lon;timestamp;P1;durP1;ratioP1;P2;durP2;ratioP2
7831;SDS011;3961;42.058;25.586;2022-12-18T00:01:05;51.43;;;30.27;;
7831;SDS011;3961;42.058;25.586;2022-12-18T00:03:38;49.77;;;30.87;;
7831;SDS011;3961;42.058;25.586;2022-12-18T00:06:04;48.57;;;29.87;;
7831;SDS011;3961;42.058;25.586;2022-12-18T00:08:29;52.13;;;31.00;;
7831;SDS011;3961;42.058;25.586;2022-12-18T00:10:55;48.87;;;29.60;;
7831;SDS011;3961;42.058;25.586;2022-12-18T00:13:20;58.07;;;31.23;;
7831;SDS011;3961;42.058;25.586;2022-12-18T00:15:46;51.93;;;30.67;;
7831;SDS011;3961;42.058;25.586;2022-12-18T00:18:11;49.50;;;30.57;;
7831;SDS011;3961;42.058;25.586;2022-12-18T00:20:37;49.67;;;30.83;;
7831;SDS011;3961;42.058;25.586;2022-12-18T00:23:05;52.87;;;29.97;;
7831;SDS011;3961;42.058;25.586;2022-12-18T00:25:34;53.37;;;30.57;;
7831;SDS011;3961;42.058;25.586;2022-12-18T00:28:04;50.33;;;29.83;;
7831;SDS011;3961;42.058;25.586;2022-12-18T00:30:30;46.73;;;28.73;;
7831;SDS011;3961;42.058;25.586;2022-12-18T00:32:55;47.90;;;28.90;;
7831;SDS011;3961;42.058;25.586;2022-12-18T00:35:22;50.57;;;30.30;;
7831;SDS011;3961;42.058;25.586;2022-12-18T00:37:47;49.33;;;28.20;;
7831;SDS011;3961;42.058;25.586;2022-12-18T00:40:13;47.00;;;28.23;;
7831;SDS011;3961;42.058;25.586;2022-12-18T00:42:38;49.30;;;30.33;;
7831;SDS011;3961;42.058;25.586;2022-12-18T00:45:22;56.10;;;31.13;;
7831;SDS011;3961;42.058;25.586;2022-12-18T00:47:52;51.80;;;30.63;;
7831;SDS011;3961;42.058;25.586;2022-12-18T00:50:18;48.57;;;30.17;;
7831;SDS011;3961;42.058;25.586;2022-12-18T00:52:44;54.33;;;30.23;;
7831;SDS011;3961;42.058;25.586;2022-12-18T00:55:10;49.47;;;31.83;;
7831;SDS011;3961;42.058;25.586;2022-12-18T00:57:36;52.00;;;30.17;;
7831;SDS011;3961;42.058;25.586;2022-12-18T01:00:01;54.40;;;30.80;;
7831;SDS011;3961;42.058;25.586;2022-12-18T01:02:28;53.93;;;30.17;;
7831;SDS011;3961;42.058;25.586;2022-12-18T01:04:53;46.07;;;29.70;;
7831;SDS011;3961;42.058;25.586;2022-12-18T01:07:19;51.03;;;31.93;;
7831;SDS011;3961;42.058;25.586;2022-12-18T01:09:44;50.00;;;29.30;;
7831;SDS011;3961;42.058;25.586;2022-12-18T01:12:10;53.23;;;30.77;;
7831;SDS011;3961;42.058;25.586;2022-12-18T01:14:36;46.47;;;29.00;;
7831;SDS011;3961;42.058;25.586;2022-12-18T01:17:03;46.47;;;29.23;;
7831;SDS011;3961;42.058;25.586;2022-12-18T01:19:29;51.83;;;29.90;;
7831;SDS011;3961;42.058;25.586;2022-12-18T01:21:55;45.77;;;29.63;;
7831;SDS011;3961;42.058;25.586;2022-12-18T01:24:20;47.03;;;29.50;;
7831;SDS011;3961;42.058;25.586;2022-12-18T01:26:46;47.70;;;29.80;;
7831;SDS011;3961;42.058;25.586;2022-12-18T01:29:11;52.93;;;29.07;;
7831;SDS011;3961;42.058;25.586;2022-12-18T01:31:37;45.23;;;29.17;;
7831;SDS011;3961;42.058;25.586;2022-12-18T01:34:03;46.00;;;28.57;;
7831;SDS011;3961;42.058;25.586;2022-12-18T01:36:31;46.03;;;28.60;;
7831;SDS011;3961;42.058;25.586;2022-12-18T01:38:59;49.13;;;29.30;;
7831;SDS011;3961;42.058;25.586;2022-12-18T01:41:26;44.50;;;27.67;;
7831;SDS011;3961;42.058;25.586;2022-12-18T01:47:30;46.93;;;28.50;;
7831;SDS011;3961;42.058;25.586;2022-12-18T01:50:08;47.10;;;29.10;;
7831;SDS011;3961;42.058;25.586;2022-12-18T01:52:37;48.90;;;28.20;;
7831;SDS011;3961;42.058;25.586;2022-12-18T01:55:06;47.67;;;28.77;;
7831;SDS011;3961;42.058;25.586;2022-12-18T01:57:33;49.83;;;29.77;;
7831;SDS011;3961;42.058;25.586;2022-12-18T02:00:01;47.73;;;29.03;;
7831;SDS011;3961;42.058;25.586;2022-12-18T02:02:33;47.40;;;28.30;;
7831;SDS011;3961;42.058;25.586;2022-12-18T02:04:59;47.73;;;28.93;;
7831;SDS011;3961;42.058;25.586;2022-12-18T02:10:06;47.63;;;28.63;;
7831;SDS011;3961;42.058;25.586;2022-12-18T02:15:19;53.83;;;30.67;;
7831;SDS011;3961;42.058;25.586;2022-12-18T02:17:58;49.90;;;30.40;;
7831;SDS011;3961;42.058;25.586;2022-12-18T02:20:36;52.23;;;31.63;;
7831;SDS011;3961;42.058;25.586;2022-12-18T02:28:45;56.13;;;31.77;;
7831;SDS011;3961;42.058;25.586;2022-12-18T02:31:22;52.13;;;31.90;;
7831;SDS011;3961;42.058;25.586;2022-12-18T02:33:51;48.73;;;29.53;;
7831;SDS011;3961;42.058;25.586;2022-12-18T02:36:23;52.23;;;31.53;;
7831;SDS011;3961;42.058;25.586;2022-12-18T02:38:51;52.47;;;31.63;;
7831;SDS011;3961;42.058;25.586;2022-12-18T02:41:18;49.27;;;31.57;;
7831;SDS011;3961;42.058;25.586;2022-12-18T02:43:48;50.93;;;31.07;;
7831;SDS011;3961;42.058;25.586;2022-12-18T02:46:23;57.83;;;32.17;;
7831;SDS011;3961;42.058;25.586;2022-12-18T02:48:50;53.27;;;31.73;;
7831;SDS011;3961;42.058;25.586;2022-12-18T02:54:08;50.63;;;31.43;;
7831;SDS011;3961;42.058;25.586;2022-12-18T02:56:45;53.83;;;32.33;;
7831;SDS011;3961;42.058;25.586;2022-12-18T02:59:21;56.10;;;32.27;;
7831;SDS011;3961;42.058;25.586;2022-12-18T03:02:07;57.83;;;31.53;;
7831;SDS011;3961;42.058;25.586;2022-12-18T03:04:43;53.40;;;31.03;;
7831;SDS011;3961;42.058;25.586;2022-12-18T03:07:19;56.17;;;31.50;;
7831;SDS011;3961;42.058;25.586;2022-12-18T03:09:50;55.43;;;32.83;;
7831;SDS011;3961;42.058;25.586;2022-12-18T03:12:21;53.57;;;32.43;;
7831;SDS011;3961;42.058;25.586;2022-12-18T03:15:12;58.33;;;34.63;;
7831;SDS011;3961;42.058;25.586;2022-12-18T03:17:40;59.93;;;34.73;;
7831;SDS011;3961;42.058;25.586;2022-12-18T03:20:13;52.47;;;31.73;;
7831;SDS011;3961;42.058;25.586;2022-12-18T03:22:43;52.40;;;30.97;;
7831;SDS011;3961;42.058;25.586;2022-12-18T03:25:13;51.13;;;31.73;;
7831;SDS011;3961;42.058;25.586;2022-12-18T03:27:41;52.57;;;31.87;;
7831;SDS011;3961;42.058;25.586;2022-12-18T03:30:12;48.50;;;29.97;;
7831;SDS011;3961;42.058;25.586;2022-12-18T03:32:40;52.57;;;32.17;;
7831;SDS011;3961;42.058;25.586;2022-12-18T03:35:29;52.30;;;31.27;;
7831;SDS011;3961;42.058;25.586;2022-12-18T03:37:59;49.50;;;32.07;;
7831;SDS011;3961;42.058;25.586;2022-12-18T03:46:07;53.00;;;32.20;;
7831;SDS011;3961;42.058;25.586;2022-12-18T03:48:43;50.30;;;31.70;;
7831;SDS011;3961;42.058;25.586;2022-12-18T03:51:17;49.63;;;31.17;;
7831;SDS011;3961;42.058;25.586;2022-12-18T03:53:54;51.77;;;30.43;;
7831;SDS011;3961;42.058;25.586;2022-12-18T03:56:23;49.77;;;30.20;;
7831;SDS011;3961;42.058;25.586;2022-12-18T03:58:52;50.37;;;31.67;;
7831;SDS011;3961;42.058;25.586;2022-12-18T04:01:20;56.07;;;33.47;;
7831;SDS011;3961;42.058;25.586;2022-12-18T04:03:51;51.73;;;30.20;;
7831;SDS011;3961;42.058;25.586;2022-12-18T04:06:18;51.83;;;30.77;;
7831;SDS011;3961;42.058;25.586;2022-12-18T04:08:44;50.47;;;31.37;;
7831;SDS011;3961;42.058;25.586;2022-12-18T04:11:11;51.97;;;31.70;;
7831;SDS011;3961;42.058;25.586;2022-12-18T04:13:37;49.97;;;29.90;;
7831;SDS011;3961;42.058;25.586;2022-12-18T04:16:03;54.43;;;32.77;;
7831;SDS011;3961;42.058;25.586;2022-12-18T04:18:30;55.67;;;31.00;;
7831;SDS011;3961;42.058;25.586;2022-12-18T04:20:55;51.20;;;31.00;;
7831;SDS011;3961;42.058;25.586;2022-12-18T04:23:21;53.40;;;30.97;;
7831;SDS011;3961;42.058;25.586;2022-12-18T04:25:46;53.90;;;32.37;;
7831;SDS011;3961;42.058;25.586;2022-12-18T04:28:12;53.87;;;31.97;;
7831;SDS011;3961;42.058;25.586;2022-12-18T04:30:38;55.33;;;32.93;;
7831;SDS011;3961;42.058;25.586;2022-12-18T04:33:03;54.57;;;32.93;;
7831;SDS011;3961;42.058;25.586;2022-12-18T04:35:29;56.23;;;34.50;;
7831;SDS011;3961;42.058;25.586;2022-12-18T04:37:55;53.70;;;32.97;;
7831;SDS011;3961;42.058;25.586;2022-12-18T04:40:20;57.13;;;33.30;;
7831;SDS011;3961;42.058;25.586;2022-12-18T04:42:46;56.40;;;33.53;;
7831;SDS011;3961;42.058;25.586;2022-12-18T04:45:11;53.40;;;33.80;;
7831;SDS011;3961;42.058;25.586;2022-12-18T04:47:37;54.23;;;34.53;;
7831;SDS011;3961;42.058;25.586;2022-12-18T04:50:03;50.73;;;31.50;;
7831;SDS011;3961;42.058;25.586;2022-12-18T04:52:28;53.90;;;34.10;;
7831;SDS011;3961;42.058;25.586;2022-12-18T04:54:54;57.37;;;32.97;;
7831;SDS011;3961;42.058;25.586;2022-12-18T04:57:19;57.80;;;33.00;;
7831;SDS011;3961;42.058;25.586;2022-12-18T04:59:45;57.10;;;35.07;;
7831;SDS011;3961;42.058;25.586;2022-12-18T05:02:11;53.40;;;31.60;;
7831;SDS011;3961;42.058;25.586;2022-12-18T05:04:36;54.77;;;31.47;;
7831;SDS011;3961;42.058;25.586;2022-12-18T05:07:02;49.03;;;30.57;;
7831;SDS011;3961;42.058;25.586;2022-12-18T05:09:27;48.10;;;29.23;;
7831;SDS011;3961;42.058;25.586;2022-12-18T05:11:53;52.67;;;32.57;;
7831;SDS011;3961;42.058;25.586;2022-12-18T05:14:19;52.47;;;32.23;;
7831;SDS011;3961;42.058;25.586;2022-12-18T05:16:44;60.37;;;36.20;;
7831;SDS011;3961;42.058;25.586;2022-12-18T05:19:09;50.13;;;30.17;;
7831;SDS011;3961;42.058;25.586;2022-12-18T05:21:35;46.63;;;28.63;;
7831;SDS011;3961;42.058;25.586;2022-12-18T05:24:00;75.00;;;41.93;;
7831;SDS011;3961;42.058;25.586;2022-12-18T05:26:26;54.73;;;31.33;;
7831;SDS011;3961;42.058;25.586;2022-12-18T05:28:51;50.47;;;30.87;;
7831;SDS011;3961;42.058;25.586;2022-12-18T05:31:17;52.70;;;31.37;;
7831;SDS011;3961;42.058;25.586;2022-12-18T05:33:42;49.33;;;31.80;;
7831;SDS011;3961;42.058;25.586;2022-12-18T05:36:08;51.47;;;32.47;;
7831;SDS011;3961;42.058;25.586;2022-12-18T05:38:35;53.63;;;32.10;;
7831;SDS011;3961;42.058;25.586;2022-12-18T05:41:02;57.70;;;36.17;;
7831;SDS011;3961;42.058;25.586;2022-12-18T05:43:29;52.90;;;32.80;;
7831;SDS011;3961;42.058;25.586;2022-12-18T05:45:54;52.30;;;33.80;;
7831;SDS011;3961;42.058;25.586;2022-12-18T05:48:21;54.63;;;33.13;;
7831;SDS011;3961;42.058;25.586;2022-12-18T05:50:48;54.47;;;33.27;;
7831;SDS011;3961;42.058;25.586;2022-12-18T05:53:15;59.23;;;34.47;;
7831;SDS011;3961;42.058;25.586;2022-12-18T05:55:42;68.17;;;39.53;;
7831;SDS011;3961;42.058;25.586;2022-12-18T05:58:09;64.57;;;37.87;;
7831;SDS011;3961;42.058;25.586;2022-12-18T06:00:37;62.70;;;36.97;;
7831;SDS011;3961;42.058;25.586;2022-12-18T06:03:07;61.37;;;36.93;;
7831;SDS011;3961;42.058;25.586;2022-12-18T06:05:44;60.77;;;35.77;;
7831;SDS011;3961;42.058;25.586;2022-12-18T06:08:10;51.00;;;32.50;;
7831;SDS011;3961;42.058;25.586;2022-12-18T06:10:37;62.00;;;37.33;;
7831;SDS011;3961;42.058;25.586;2022-12-18T06:13:03;63.13;;;37.53;;
7831;SDS011;3961;42.058;25.586;2022-12-18T06:15:29;56.90;;;35.80;;
7831;SDS011;3961;42.058;25.586;2022-12-18T06:17:54;61.37;;;37.27;;
7831;SDS011;3961;42.058;25.586;2022-12-18T06:20:20;70.50;;;37.33;;
7831;SDS011;3961;42.058;25.586;2022-12-18T06:22:46;57.23;;;34.13;;
7831;SDS011;3961;42.058;25.586;2022-12-18T06:25:11;53.10;;;32.20;;
7831;SDS011;3961;42.058;25.586;2022-12-18T06:27:37;57.37;;;33.37;;
7831;SDS011;3961;42.058;25.586;2022-12-18T06:30:03;60.80;;;37.17;;
7831;SDS011;3961;42.058;25.586;2022-12-18T06:32:29;67.53;;;40.20;;
7831;SDS011;3961;42.058;25.586;2022-12-18T06:34:54;63.97;;;36.40;;
7831;SDS011;3961;42.058;25.586;2022-12-18T06:37:20;61.67;;;35.97;;
7831;SDS011;3961;42.058;25.586;2022-12-18T06:39:46;58.87;;;34.30;;
7831;SDS011;3961;42.058;25.586;2022-12-18T06:42:12;60.77;;;36.47;;
7831;SDS011;3961;42.058;25.586;2022-12-18T06:44:37;57.03;;;36.20;;
7831;SDS011;3961;42.058;25.586;2022-12-18T06:47:03;58.60;;;36.47;;
7831;SDS011;3961;42.058;25.586;2022-12-18T06:49:28;55.50;;;36.63;;
7831;SDS011;3961;42.058;25.586;2022-12-18T06:51:53;63.87;;;37.70;;
7831;SDS011;3961;42.058;25.586;2022-12-18T06:54:19;62.30;;;38.37;;
7831;SDS011;3961;42.058;25.586;2022-12-18T06:56:45;64.40;;;38.13;;
7831;SDS011;3961;42.058;25.586;2022-12-18T06:59:12;60.73;;;37.13;;
7831;SDS011;3961;42.058;25.586;2022-12-18T07:01:39;58.93;;;36.70;;
7831;SDS011;3961;42.058;25.586;2022-12-18T07:04:04;58.13;;;35.50;;
7831;SDS011;3961;42.058;25.586;2022-12-18T07:06:30;51.07;;;33.50;;
7831;SDS011;3961;42.058;25.586;2022-12-18T07:08:55;53.00;;;31.00;;
7831;SDS011;3961;42.058;25.586;2022-12-18T07:11:21;45.53;;;28.77;;
7831;SDS011;3961;42.058;25.586;2022-12-18T07:13:47;43.53;;;28.90;;
7831;SDS011;3961;42.058;25.586;2022-12-18T07:16:14;44.33;;;28.37;;
7831;SDS011;3961;42.058;25.586;2022-12-18T07:18:44;37.53;;;24.93;;
7831;SDS011;3961;42.058;25.586;2022-12-18T07:21:11;36.90;;;23.00;;
7831;SDS011;3961;42.058;25.586;2022-12-18T07:23:40;35.27;;;22.20;;
7831;SDS011;3961;42.058;25.586;2022-12-18T07:26:07;30.13;;;20.10;;
7831;SDS011;3961;42.058;25.586;2022-12-18T07:28:35;25.07;;;18.13;;
7831;SDS011;3961;42.058;25.586;2022-12-18T07:31:05;27.27;;;18.60;;
7831;SDS011;3961;42.058;25.586;2022-12-18T07:33:36;27.20;;;17.30;;
7831;SDS011;3961;42.058;25.586;2022-12-18T07:36:02;25.37;;;15.77;;
7831;SDS011;3961;42.058;25.586;2022-12-18T07:38:29;29.00;;;16.10;;
7831;SDS011;3961;42.058;25.586;2022-12-18T07:41:02;28.27;;;15.30;;
7831;SDS011;3961;42.058;25.586;2022-12-18T07:43:32;25.27;;;15.17;;
7831;SDS011;3961;42.058;25.586;2022-12-18T07:45:58;23.37;;;15.47;;
7831;SDS011;3961;42.058;25.586;2022-12-18T07:48:23;23.07;;;15.63;;
7831;SDS011;3961;42.058;25.586;2022-12-18T07:50:49;24.93;;;16.00;;
7831;SDS011;3961;42.058;25.586;2022-12-18T07:53:14;34.23;;;15.90;;
7831;SDS011;3961;42.058;25.586;2022-12-18T07:55:40;28.03;;;15.90;;
7831;SDS011;3961;42.058;25.586;2022-12-18T07:58:06;24.43;;;16.87;;
7831;SDS011;3961;42.058;25.586;2022-12-18T08:00:32;23.27;;;16.33;;
7831;SDS011;3961;42.058;25.586;2022-12-18T08:02:58;23.83;;;16.73;;
7831;SDS011;3961;42.058;25.586;2022-12-18T08:05:24;29.70;;;18.43;;
7831;SDS011;3961;42.058;25.586;2022-12-18T08:07:49;26.97;;;17.23;;
7831;SDS011;3961;42.058;25.586;2022-12-18T08:10:15;27.00;;;18.73;;
7831;SDS011;3961;42.058;25.586;2022-12-18T08:12:41;26.30;;;17.27;;
7831;SDS011;3961;42.058;25.586;2022-12-18T08:15:06;20.50;;;14.33;;
7831;SDS011;3961;42.058;25.586;2022-12-18T08:17:33;16.60;;;12.43;;
7831;SDS011;3961;42.058;25.586;2022-12-18T08:19:59;17.83;;;12.43;;
7831;SDS011;3961;42.058;25.586;2022-12-18T08:22:24;14.13;;;9.77;;
7831;SDS011;3961;42.058;25.586;2022-12-18T08:24:50;14.43;;;10.17;;
7831;SDS011;3961;42.058;25.586;2022-12-18T08:27:16;16.50;;;9.33;;
7831;SDS011;3961;42.058;25.586;2022-12-18T08:29:41;15.97;;;9.40;;
7831;SDS011;3961;42.058;25.586;2022-12-18T08:32:07;14.77;;;10.03;;
7831;SDS011;3961;42.058;25.586;2022-12-18T08:34:32;11.10;;;8.40;;
7831;SDS011;3961;42.058;25.586;2022-12-18T08:36:58;11.77;;;8.57;;
7831;SDS011;3961;42.058;25.586;2022-12-18T08:39:23;11.97;;;8.30;;
7831;SDS011;3961;42.058;25.586;2022-12-18T08:41:48;11.67;;;8.37;;
7831;SDS011;3961;42.058;25.586;2022-12-18T08:44:34;10.80;;;8.07;;
7831;SDS011;3961;42.058;25.586;2022-12-18T08:47:02;11.00;;;8.03;;
7831;SDS011;3961;42.058;25.586;2022-12-18T08:49:28;13.13;;;7.80;;
7831;SDS011;3961;42.058;25.586;2022-12-18T08:51:54;12.67;;;7.67;;
7831;SDS011;3961;42.058;25.586;2022-12-18T08:54:22;11.93;;;7.93;;
7831;SDS011;3961;42.058;25.586;2022-12-18T08:56:48;19.33;;;10.77;;
7831;SDS011;3961;42.058;25.586;2022-12-18T08:59:15;15.80;;;10.43;;
7831;SDS011;3961;42.058;25.586;2022-12-18T09:01:41;15.03;;;8.23;;
7831;SDS011;3961;42.058;25.586;2022-12-18T09:04:07;14.63;;;9.47;;
7831;SDS011;3961;42.058;25.586;2022-12-18T09:06:33;13.03;;;8.23;;
7831;SDS011;3961;42.058;25.586;2022-12-18T09:08:59;14.07;;;8.87;;
7831;SDS011;3961;42.058;25.586;2022-12-18T09:11:25;17.73;;;10.40;;
7831;SDS011;3961;42.058;25.586;2022-12-18T09:13:52;17.30;;;9.80;;
7831;SDS011;3961;42.058;25.586;2022-12-18T09:16:19;13.67;;;9.00;;
7831;SDS011;3961;42.058;25.586;2022-12-18T09:18:45;11.73;;;8.10;;
7831;SDS011;3961;42.058;25.586;2022-12-18T09:21:15;12.03;;;8.13;;
7831;SDS011;3961;42.058;25.586;2022-12-18T09:23:43;14.47;;;9.13;;
7831;SDS011;3961;42.058;25.586;2022-12-18T09:26:09;19.23;;;10.50;;
7831;SDS011;3961;42.058;25.586;2022-12-18T09:28:35;20.77;;;12.07;;
7831;SDS011;3961;42.058;25.586;2022-12-18T09:31:04;14.47;;;10.43;;
7831;SDS011;3961;42.058;25.586;2022-12-18T09:33:32;21.10;;;12.00;;
7831;SDS011;3961;42.058;25.586;2022-12-18T09:36:00;18.40;;;11.90;;
7831;SDS011;3961;42.058;25.586;2022-12-18T09:38:26;18.50;;;13.07;;
7831;SDS011;3961;42.058;25.586;2022-12-18T09:40:52;20.63;;;12.90;;
7831;SDS011;3961;42.058;25.586;2022-12-18T09:43:22;23.87;;;14.23;;
7831;SDS011;3961;42.058;25.586;2022-12-18T09:46:01;21.03;;;14.53;;
7831;SDS011;3961;42.058;25.586;2022-12-18T09:48:32;18.30;;;13.83;;
7831;SDS011;3961;42.058;25.586;2022-12-18T09:51:02;16.17;;;12.40;;
7831;SDS011;3961;42.058;25.586;2022-12-18T09:53:35;19.00;;;13.13;;
7831;SDS011;3961;42.058;25.586;2022-12-18T09:56:06;18.17;;;13.30;;
7831;SDS011;3961;42.058;25.586;2022-12-18T09:58:46;20.43;;;13.73;;
7831;SDS011;3961;42.058;25.586;2022-12-18T10:01:24;23.93;;;13.97;;
7831;SDS011;3961;42.058;25.586;2022-12-18T10:03:50;18.73;;;13.60;;
7831;SDS011;3961;42.058;25.586;2022-12-18T10:06:52;21.83;;;14.70;;
7831;SDS011;3961;42.058;25.586;2022-12-18T10:09:28;18.13;;;13.03;;
7831;SDS011;3961;42.058;25.586;2022-12-18T10:17:45;19.77;;;14.47;;
7831;SDS011;3961;42.058;25.586;2022-12-18T10:21:05;21.83;;;15.43;;
7831;SDS011;3961;42.058;25.586;2022-12-18T10:26:09;24.63;;;16.23;;
7831;SDS011;3961;42.058;25.586;2022-12-18T10:28:36;25.00;;;16.17;;
7831;SDS011;3961;42.058;25.586;2022-12-18T10:31:16;26.53;;;16.37;;
7831;SDS011;3961;42.058;25.586;2022-12-18T10:33:44;21.43;;;13.97;;
7831;SDS011;3961;42.058;25.586;2022-12-18T10:36:10;17.30;;;11.80;;
7831;SDS011;3961;42.058;25.586;2022-12-18T10:38:36;18.77;;;12.13;;
7831;SDS011;3961;42.058;25.586;2022-12-18T10:41:05;18.07;;;11.77;;
7831;SDS011;3961;42.058;25.586;2022-12-18T10:44:11;19.07;;;13.10;;
7831;SDS011;3961;42.058;25.586;2022-12-18T10:46:47;18.43;;;12.83;;
7831;SDS011;3961;42.058;25.586;2022-12-18T10:49:18;21.50;;;13.80;;
7831;SDS011;3961;42.058;25.586;2022-12-18T10:51:47;20.56;;;12.92;;
7831;SDS011;3961;42.058;25.586;2022-12-18T10:54:21;19.60;;;12.17;;
7831;SDS011;3961;42.058;25.586;2022-12-18T10:56:48;19.47;;;11.77;;
7831;SDS011;3961;42.058;25.586;2022-12-18T10:59:15;18.93;;;13.20;;
7831;SDS011;3961;42.058;25.586;2022-12-18T11:01:55;22.20;;;14.73;;
7831;SDS011;3961;42.058;25.586;2022-12-18T11:04:28;21.10;;;14.73;;
7831;SDS011;3961;42.058;25.586;2022-12-18T11:07:03;19.40;;;12.63;;
7831;SDS011;3961;42.058;25.586;2022-12-18T11:09:34;27.03;;;17.37;;
7831;SDS011;3961;42.058;25.586;2022-12-18T11:12:02;14.13;;;8.57;;
7831;SDS011;3961;42.058;25.586;2022-12-18T11:14:41;17.53;;;9.30;;
7831;SDS011;3961;42.058;25.586;2022-12-18T11:20:01;12.93;;;9.10;;
7831;SDS011;3961;42.058;25.586;2022-12-18T11:22:30;12.40;;;8.37;;
7831;SDS011;3961;42.058;25.586;2022-12-18T11:25:02;14.53;;;8.80;;
7831;SDS011;3961;42.058;25.586;2022-12-18T11:27:31;14.97;;;7.83;;
7831;SDS011;3961;42.058;25.586;2022-12-18T11:30:20;16.17;;;9.20;;
7831;SDS011;3961;42.058;25.586;2022-12-18T11:32:50;12.73;;;8.17;;
7831;SDS011;3961;42.058;25.586;2022-12-18T11:38:37;9.40;;;7.20;;
7831;SDS011;3961;42.058;25.586;2022-12-18T11:41:21;12.50;;;8.20;;
7831;SDS011;3961;42.058;25.586;2022-12-18T11:44:08;10.13;;;7.70;;
7831;SDS011;3961;42.058;25.586;2022-12-18T11:46:40;11.00;;;8.07;;
7831;SDS011;3961;42.058;25.586;2022-12-18T11:49:25;9.30;;;7.17;;
7831;SDS011;3961;42.058;25.586;2022-12-18T11:52:03;10.60;;;7.37;;
7831;SDS011;3961;42.058;25.586;2022-12-18T11:54:35;12.17;;;7.70;;
7831;SDS011;3961;42.058;25.586;2022-12-18T12:07:51;15.40;;;8.40;;
7831;SDS011;3961;42.058;25.586;2022-12-18T12:18:23;9.73;;;6.87;;
7831;SDS011;3961;42.058;25.586;2022-12-18T12:23:38;9.77;;;7.00;;
7831;SDS011;3961;42.058;25.586;2022-12-18T12:26:30;8.63;;;6.17;;
7831;SDS011;3961;42.058;25.586;2022-12-18T12:31:40;10.87;;;7.30;;
7831;SDS011;3961;42.058;25.586;2022-12-18T12:34:38;12.93;;;6.93;;
7831;SDS011;3961;42.058;25.586;2022-12-18T12:40:05;10.03;;;7.13;;
7831;SDS011;3961;42.058;25.586;2022-12-18T12:42:32;10.23;;;6.03;;
7831;SDS011;3961;42.058;25.586;2022-12-18T12:45:27;8.80;;;5.70;;
7831;SDS011;3961;42.058;25.586;2022-12-18T12:48:00;8.80;;;6.20;;
7831;SDS011;3961;42.058;25.586;2022-12-18T12:50:30;9.63;;;6.17;;
7831;SDS011;3961;42.058;25.586;2022-12-18T12:52:59;10.53;;;5.63;;
7831;SDS011;3961;42.058;25.586;2022-12-18T12:55:31;8.40;;;5.80;;
7831;SDS011;3961;42.058;25.586;2022-12-18T12:58:05;9.90;;;6.03;;
7831;SDS011;3961;42.058;25.586;2022-12-18T13:00:36;10.40;;;5.90;;
7831;SDS011;3961;42.058;25.586;2022-12-18T13:05:56;8.53;;;6.47;;
7831;SDS011;3961;42.058;25.586;2022-12-18T13:08:26;11.17;;;6.73;;
7831;SDS011;3961;42.058;25.586;2022-12-18T13:10:59;11.20;;;6.50;;
7831;SDS011;3961;42.058;25.586;2022-12-18T13:13:50;10.87;;;7.40;;
7831;SDS011;3961;42.058;25.586;2022-12-18T13:16:19;9.37;;;6.90;;
7831;SDS011;3961;42.058;25.586;2022-12-18T13:18:53;10.90;;;8.30;;
7831;SDS011;3961;42.058;25.586;2022-12-18T13:21:24;11.80;;;7.40;;
7831;SDS011;3961;42.058;25.586;2022-12-18T13:23:52;15.67;;;8.57;;
7831;SDS011;3961;42.058;25.586;2022-12-18T13:36:43;14.00;;;8.77;;
7831;SDS011;3961;42.058;25.586;2022-12-18T13:41:44;13.90;;;9.73;;
7831;SDS011;3961;42.058;25.586;2022-12-18T13:46:59;14.43;;;10.53;;
7831;SDS011;3961;42.058;25.586;2022-12-18T13:49:36;14.20;;;9.63;;
7831;SDS011;3961;42.058;25.586;2022-12-18T13:55:01;18.70;;;10.53;;
7831;SDS011;3961;42.058;25.586;2022-12-18T13:57:35;16.97;;;11.07;;
7831;SDS011;3961;42.058;25.586;2022-12-18T14:02:44;21.23;;;12.47;;
7831;SDS011;3961;42.058;25.586;2022-12-18T14:05:27;18.47;;;12.40;;
7831;SDS011;3961;42.058;25.586;2022-12-18T14:08:06;20.80;;;11.70;;
7831;SDS011;3961;42.058;25.586;2022-12-18T14:10:35;22.27;;;12.50;;
7831;SDS011;3961;42.058;25.586;2022-12-18T14:13:06;24.00;;;13.47;;
7831;SDS011;3961;42.058;25.586;2022-12-18T14:15:35;19.90;;;12.17;;
7831;SDS011;3961;42.058;25.586;2022-12-18T14:20:53;22.67;;;11.70;;
7831;SDS011;3961;42.058;25.586;2022-12-18T14:25:59;18.43;;;11.87;;
7831;SDS011;3961;42.058;25.586;2022-12-18T14:28:43;17.67;;;10.50;;
7831;SDS011;3961;42.058;25.586;2022-12-18T14:31:17;18.03;;;11.53;;
7831;SDS011;3961;42.058;25.586;2022-12-18T14:33:43;14.03;;;10.37;;
7831;SDS011;3961;42.058;25.586;2022-12-18T14:36:14;20.47;;;10.10;;
7831;SDS011;3961;42.058;25.586;2022-12-18T14:38:42;15.33;;;11.03;;
7831;SDS011;3961;42.058;25.586;2022-12-18T14:43:39;21.20;;;12.10;;
7831;SDS011;3961;42.058;25.586;2022-12-18T14:46:25;16.67;;;11.07;;
7831;SDS011;3961;42.058;25.586;2022-12-18T14:49:00;18.10;;;12.27;;
7831;SDS011;3961;42.058;25.586;2022-12-18T14:51:41;17.50;;;12.07;;
7831;SDS011;3961;42.058;25.586;2022-12-18T14:54:17;17.33;;;12.23;;
7831;SDS011;3961;42.058;25.586;2022-12-18T14:56:45;17.20;;;12.13;;
7831;SDS011;3961;42.058;25.586;2022-12-18T14:59:14;20.37;;;11.43;;
7831;SDS011;3961;42.058;25.586;2022-12-18T15:04:40;24.30;;;14.23;;
7831;SDS011;3961;42.058;25.586;2022-12-18T15:09:43;19.10;;;12.60;;
7831;SDS011;3961;42.058;25.586;2022-12-18T15:12:26;20.90;;;14.17;;
7831;SDS011;3961;42.058;25.586;2022-12-18T15:14:59;21.80;;;13.70;;
7831;SDS011;3961;42.058;25.586;2022-12-18T15:17:25;20.50;;;13.93;;
7831;SDS011;3961;42.058;25.586;2022-12-18T15:19:52;19.73;;;13.57;;
7831;SDS011;3961;42.058;25.586;2022-12-18T15:24:56;21.83;;;13.63;;
7831;SDS011;3961;42.058;25.586;2022-12-18T15:27:35;20.07;;;12.80;;
7831;SDS011;3961;42.058;25.586;2022-12-18T15:32:34;17.53;;;12.27;;
7831;SDS011;3961;42.058;25.586;2022-12-18T15:37:37;18.30;;;11.63;;
7831;SDS011;3961;42.058;25.586;2022-12-18T15:40:03;16.23;;;10.90;;
7831;SDS011;3961;42.058;25.586;2022-12-18T15:42:29;17.53;;;10.70;;
7831;SDS011;3961;42.058;25.586;2022-12-18T15:45:13;16.80;;;10.83;;
7831;SDS011;3961;42.058;25.586;2022-12-18T15:47:39;17.50;;;9.97;;
7831;SDS011;3961;42.058;25.586;2022-12-18T15:50:06;17.90;;;11.30;;
7831;SDS011;3961;42.058;25.586;2022-12-18T15:52:35;16.37;;;11.23;;
7831;SDS011;3961;42.058;25.586;2022-12-18T15:55:08;16.00;;;11.37;;
7831;SDS011;3961;42.058;25.586;2022-12-18T15:57:55;18.57;;;11.20;;
7831;SDS011;3961;42.058;25.586;2022-12-18T16:00:21;16.53;;;11.07;;
7831;SDS011;3961;42.058;25.586;2022-12-18T16:02:46;19.73;;;12.57;;
7831;SDS011;3961;42.058;25.586;2022-12-18T16:05:15;14.30;;;10.00;;
7831;SDS011;3961;42.058;25.586;2022-12-18T16:07:42;17.10;;;11.40;;
7831;SDS011;3961;42.058;25.586;2022-12-18T16:10:08;17.93;;;12.00;;
7831;SDS011;3961;42.058;25.586;2022-12-18T16:12:33;16.80;;;11.33;;
7831;SDS011;3961;42.058;25.586;2022-12-18T16:14:59;18.53;;;11.73;;
7831;SDS011;3961;42.058;25.586;2022-12-18T16:17:25;16.57;;;11.63;;
7831;SDS011;3961;42.058;25.586;2022-12-18T16:19:50;18.03;;;11.80;;
7831;SDS011;3961;42.058;25.586;2022-12-18T16:22:20;23.53;;;13.63;;
7831;SDS011;3961;42.058;25.586;2022-12-18T16:24:46;17.77;;;11.40;;
7831;SDS011;3961;42.058;25.586;2022-12-18T16:27:12;16.57;;;10.97;;
7831;SDS011;3961;42.058;25.586;2022-12-18T16:29:37;17.83;;;11.43;;
7831;SDS011;3961;42.058;25.586;2022-12-18T16:32:03;20.50;;;11.57;;
7831;SDS011;3961;42.058;25.586;2022-12-18T16:34:30;16.20;;;11.73;;
7831;SDS011;3961;42.058;25.586;2022-12-18T16:36:58;16.43;;;11.37;;
7831;SDS011;3961;42.058;25.586;2022-12-18T16:39:25;16.00;;;10.70;;
7831;SDS011;3961;42.058;25.586;2022-12-18T16:41:51;20.30;;;11.30;;